LKNACH weather

Letiště Náchod
Hradec Králové Region, Czech Republic

Public forecast

Using degrees Celsius for public forecast. Weather courtesy of forecast.io.

Closest aviation weather report (METAR) to Letiště Náchod

Closest report is Pardubice Airport, 28.1 nm (52.1 km) SSW. Retrieved 2020/08/06 13:30 UTC (16 minutes ago):

LKPD 061330Z VRB05KT CAVOK 26/15 Q1021 NOSIG

Closest aviation forecast (TAF) to Letiště Náchod

Closest forecast is Pardubice Airport, 28.1 nm (52.1 km) SSW. Retrieved 2020/08/06 12:06 UTC (2 hours ago):

TAF LKPD 061100Z 0612/0712 VRB02KT CAVOK TEMPO 0612/0620 06006KT TEMPO 0702/0705 3000 MIFG BR BECMG 0709/0711 07008KT